Woods Cross, UT (84087)

7:41 AM MDT on April 19, 2015 (GMT -0600)
MesoWest | | Change Station
CLOSE
Current Station
Personal Weather Station
Location: Woods Cross, UT
Elevation: 4214 ft
Nearby Weather Stations

Elev 4214 ft 40.91 °N, 111.92 °W | Updated 41 minutes ago

Clear
Clear
45 °F
Feels Like 45 °F
N
2
Wind Variable Wind from ENE
Gusts 5.0 mph

Today
High -- | Low -- °F
--% Chance of Precip.
Yesterday
High -- | Low -- °F
Precip. -- in
6:42 AM 8:11 PM
New Moon, 1% visible
Pressure 29.99 in
Visibility 10.0 miles
Clouds Few 15000 ft
Few 20000 ft
Windchill 45 °F
Dew Point 32 °F
Humidity 60%
Rainfall in
Snow Depth Not available.
UV 0 out of 12
Pollen 9.70 out of 12
Air Quality Not available.
Flu Activity Local Activity
METAR KSLC 191253Z 19006KT 10SM FEW150 FEW200 07/01 A3006 RMK AO2 SLP155 T00670006

More Conditions Fewer Conditions

Pressure 29.99 in
Visibility 10.0 miles
Clouds Few 15000 ft
Few 20000 ft
Windchill 45 °F
Dew Point 32 °F
Humidity 60%
Rainfall in
Snow Depth Not available.
UV 0 out of 12
Pollen 9.70 out of 12
Air Quality Not available.
Flu Activity Local Activity
METAR KSLC 191253Z 19006KT 10SM FEW150 FEW200 07/01 A3006 RMK AO2 SLP155 T00670006

More Conditions Fewer Conditions

10-Day Weather Forecast

Almanac

Astronomy

Apr. 19, 2015 Rise Set
Actual Time
Civil Twilight
Nautical Twilight
Astronomical Twilight
Moon
Length of Visible Light
Length of Day
Tomorrow will be .
, % of the Moon is Illuminated

Today's Extremes

State Highs State Lows

Community

WunderPhotos

Upload Photos

1,814,795 photos uploaded!

WunderBlogs® & News

Nearby

Air Quality

  Air Quality AQ Index Pollutant
Not available.

Snow Depth

Station Depth Elevation

Earthquake Activity

City Distance Mag. Time & Date
Minimum magnitude displayed is 2.5.

Coastal Water Temperatures

Place Temperature

Stations

Nearby Weather Stations

Station Location Temp. Windchill Dew Point Humidity Wind Precip. Elev Updated Type